Flight Track Log - Related Links

Times and Time Zones

All times are in EDT time to prevent confusion due to time zone crossing. See the UCA3598 flight status page for this flight to view local times or setup timezone preferences in your user account.

Time Position Orientation Groundspeed Altitude Reporting Facility
EDT Latitude Longitude Course Direction KTS MPH feet Rate Location/Type
Sun 10:19:48 PM 38.9500 -77.5000 322° Northwest 150 173 1,500  Level Potomac TRACON
Sun 10:20:42 PM 38.9833 -77.5333 322° Northwest 170 196 3,300 1,846 Climbing Potomac TRACON
Sun 10:22:24 PM 39.0558 -77.5589 345° North 174 200 6,300 1,804 Climbing Washington Center
Sun 10:23:25 PM 39.1078 -77.5658 354° North 174 200 8,200 1,835 Climbing Washington Center
Sun 10:24:25 PM 39.1575 -77.5750 352° North 174 200 10,000 1,700 Climbing Washington Center
Sun 10:25:25 PM 39.2100 -77.5631 10° North 181 208 11,600 1,587 Climbing Washington Center
Sun 10:26:26 PM 39.2622 -77.5483 12° North 181 208 13,200 1,613 Climbing Washington Center
Sun 10:27:24 PM 39.3208 -77.5339 11° North 186 214 14,800 1,388 Climbing Washington Center
Sun 10:28:27 PM 39.3775 -77.5194 11° North 199 229 16,000 600 Climbing Washington Center
Sun 10:29:24 PM 39.4483 -77.5050 North 225 259 16,000  Level Washington Center
Sun 10:30:25 PM 39.5258 -77.4856 11° North 259 298 16,000 456 Level Washington Center
Sun 10:32:02 PM 39.6583 -77.4508 11° North 286 329 17,200 873 Climbing New York Center
Sun 10:33:03 PM 39.7239 -77.4183 21° North 255 293 18,300 878 Climbing New York Center
Sun 10:34:05 PM 39.7900 -77.3842 22° Northeast 255 293 19,000 341 Climbing New York Center
Sun 10:35:06 PM 39.8706 -77.3431 21° North 288 331 19,000  Level New York Center
Sun 10:36:07 PM 39.9489 -77.3039 21° North 297 342 19,000  Level New York Center
Sun 10:37:08 PM 40.0269 -77.2639 21° North 300 345 19,000  Level New York Center
Sun 10:38:09 PM 40.1053 -77.2247 21° North 300 345 19,000  Level New York Center
Sun 10:39:10 PM 40.1836 -77.1842 22° Northeast 301 346 19,000  Level New York Center
Sun 10:40:11 PM 40.2683 -77.1406 21° North 302 348 19,000  Level New York Center
Sun 10:41:12 PM 40.3467 -77.1000 22° Northeast 302 348 19,000  Level New York Center
Sun 10:42:13 PM 40.4256 -77.0600 21° North 302 348 19,000  Level New York Center
Sun 10:43:14 PM 40.5042 -77.0192 22° Northeast 302 348 19,000  Level New York Center
Sun 10:44:15 PM 40.5817 -76.9792 21° North 300 345 19,000  Level New York Center
Sun 10:45:17 PM 40.6644 -76.9356 22° Northeast 299 344 19,000  Level New York Center
Sun 10:46:17 PM 40.7425 -76.8950 21° North 300 345 19,000  Level New York Center
Sun 10:47:18 PM 40.8203 -76.8533 22° Northeast 301 346 19,000  Level New York Center
Sun 10:48:19 PM 40.8978 -76.8128 22° Northeast 301 346 19,000  Level New York Center
Sun 10:49:20 PM 40.9681 -76.7764 21° North 303 349 19,000  Level New York Center
Sun 10:50:21 PM 41.0461 -76.7358 21° North 302 348 19,000  Level New York Center
Sun 10:51:22 PM 41.1242 -76.6953 21° North 302 348 19,000  Level New York Center
Sun 10:52:23 PM 41.2133 -76.6467 22° Northeast 298 343 19,000 -295 Level New York Center
Sun 10:53:24 PM 41.2953 -76.6031 22° Northeast 299 344 18,400 -689 Descending New York Center
Sun 10:54:25 PM 41.3708 -76.5619 22° Northeast 304 350 17,600 -689 Descending New York Center
Sun 10:55:26 PM 41.4525 -76.5186 22° Northeast 302 348 17,000 -295 Descending New York Center
Sun 10:56:27 PM 41.5317 -76.4764 22° Northeast 294 338 17,000 -492 Level New York Center
Sun 10:57:28 PM 41.6047 -76.4372 22° Northeast 293 337 16,000 -1,240 Descending New York Center
Sun 10:58:28 PM 41.6833 -76.3953 22° Northeast 293 337 14,500 -1,488 Descending New York Center
Sun 10:59:29 PM 41.7567 -76.3556 22° Northeast 293 337 13,000 -738 Descending New York Center
Sun 11:00:30 PM 41.8350 -76.3136 22° Northeast 286 329 13,000 -541 Level New York Center
Sun 11:01:31 PM 41.9111 -76.2725 22° Northeast 283 326 11,900 -1,328 Descending New York Center
Sun 11:02:32 PM 41.9831 -76.2319 23° Northeast 290 334 10,300 -1,574 Descending New York Center
Sun 11:03:33 PM 42.0531 -76.1942 22° Northeast 287 330 8,700 -1,672 Descending New York Center
Sun 11:04:34 PM 42.1042 -76.1325 42° Northeast 273 314 6,900 -1,820 Descending New York Center
Sun 11:05:35 PM 42.1053 -76.0417 89° East 247 284 5,000 -1,475 Descending New York Center
Sun 11:06:36 PM 42.1106 -75.9611 85° East 232 267 3,900 -1,091 Descending New York Center
Sun 11:07:36 PM 42.1458 -75.9225 39° Northeast 193 222 2,800 -843 Descending New York Center
Sun 11:08:37 PM 42.1792 -75.9536 325° Northwest 158 182 2,200 -590 Descending New York Center
Sun 11:10:00 PM 42.2000 -75.9667 North  Level FlightAware Approximate
Sun 11:17:00 PM 42.2084 -75.9796 North  Level Estimated

Login

Don't have an account? Register now (free) for customized features, flight alerts, and more!